TAF Text Data
IDs:
Format:
Raw Decoded Include METAR

Data at: 2002 UTC 01 Oct 2022

VTBD 011930Z VRB02KT 9999 -RA FEW020 SCT035 25/25 Q1007 NOSIG

TAF VTBD 011700Z 0118/0224 14005KT 9999 FEW020
  TEMPO 0118/0122 VRB15KT 3000 TSRA FEW018CB SCT030 BKN100
  BECMG 0201/0203 20008KT
  TEMPO 0204/0210 VRB10G25KT 3000 TSRA FEW018CB SCT030 BKN100